createdAt,value
2022-10-13T00:01:24.834Z,9.45
2022-10-13T00:03:53.927Z,10.13
2022-10-13T00:08:54.238Z,9.90
2022-10-13T00:11:31.706Z,9.82
2022-10-13T00:14:02.208Z,9.63
2022-10-13T00:16:32.891Z,10.60
2022-10-13T00:19:01.172Z,9.25
2022-10-13T00:21:29.998Z,10.10
2022-10-13T00:23:58.908Z,10.68
2022-10-13T00:26:27.312Z,10.38
2022-10-13T00:28:56.621Z,9.90
2022-10-13T00:31:30.883Z,10.05
2022-10-13T00:34:01.724Z,10.23
2022-10-13T00:36:30.525Z,11.32
2022-10-13T00:38:58.845Z,11.10
2022-10-13T00:41:29.210Z,11.85
2022-10-13T00:44:28.135Z,11.75
2022-10-13T00:46:56.444Z,10.65
2022-10-13T00:49:24.788Z,10.88
2022-10-13T00:51:53.068Z,10.38
2022-10-13T00:54:24.766Z,11.82
2022-10-13T00:56:54.336Z,11.68
2022-10-13T00:59:29.322Z,11.20
2022-10-13T01:01:59.407Z,11.10
2022-10-13T01:04:34.714Z,11.55
2022-10-13T01:07:06.598Z,11.27
2022-10-13T01:09:37.989Z,10.60
2022-10-13T01:12:33.027Z,11.10
2022-10-13T01:15:21.453Z,11.38
2022-10-13T01:17:55.677Z,11.98
2022-10-13T01:21:02.124Z,11.55
2022-10-13T01:23:55.679Z,11.52
2022-10-13T01:26:48.746Z,11.02
2022-10-13T01:29:46.460Z,11.98
2022-10-13T01:32:35.750Z,11.45
2022-10-13T01:35:16.341Z,12.70
2022-10-13T01:40:31.049Z,10.75
2022-10-13T01:43:16.194Z,11.40
2022-10-13T01:45:54.127Z,11.93
2022-10-13T01:48:24.230Z,12.23
2022-10-13T01:50:54.323Z,12.00
2022-10-13T01:53:23.984Z,13.10
2022-10-13T01:55:57.589Z,12.52
2022-10-13T01:58:29.182Z,13.27
2022-10-13T02:01:24.599Z,13.05
2022-10-13T02:04:06.946Z,12.35
2022-10-13T02:06:42.833Z,12.50
2022-10-13T02:09:18.927Z,12.20
2022-10-13T02:11:54.081Z,12.23
2022-10-13T02:14:27.553Z,12.30
2022-10-13T02:17:00.337Z,13.40
2022-10-13T02:19:30.523Z,13.05
2022-10-13T02:22:01.427Z,13.02
2022-10-13T02:26:58.246Z,13.30
2022-10-13T02:29:26.556Z,12.13
2022-10-13T02:31:54.971Z,12.93
2022-10-13T02:34:23.335Z,13.00
2022-10-13T02:36:51.626Z,13.63
2022-10-13T02:39:20.051Z,11.82
2022-10-13T02:41:48.506Z,12.15
2022-10-13T02:44:17.427Z,12.15
2022-10-13T02:46:45.668Z,14.57
2022-10-13T02:49:13.952Z,12.38
2022-10-13T02:51:42.309Z,12.82
2022-10-13T02:54:10.625Z,12.30
2022-10-13T02:56:39.482Z,12.38
2022-10-13T02:59:07.740Z,12.48
2022-10-13T03:01:41.127Z,12.30
2022-10-13T03:04:10.007Z,12.95
2022-10-13T03:06:38.527Z,12.00
2022-10-13T03:09:07.301Z,13.35
2022-10-13T03:11:36.966Z,12.50
2022-10-13T03:14:05.238Z,12.68
2022-10-13T03:16:33.667Z,12.43
2022-10-13T03:19:01.960Z,12.23
2022-10-13T03:21:30.276Z,12.43
2022-10-13T03:23:58.714Z,12.50
2022-10-13T03:26:28.614Z,12.43
2022-10-13T03:28:58.361Z,12.02
2022-10-13T03:31:27.007Z,13.93
2022-10-13T03:34:03.393Z,11.52
2022-10-13T03:36:32.164Z,11.73
2022-10-13T03:39:00.594Z,13.07
2022-10-13T03:41:28.934Z,12.55
2022-10-13T03:43:57.233Z,12.93
2022-10-13T03:46:29.140Z,12.32
2022-10-13T03:48:59.168Z,11.88
2022-10-13T03:51:28.089Z,12.73
2022-10-13T03:53:56.457Z,12.88
2022-10-13T03:56:27.020Z,12.77
2022-10-13T03:58:59.809Z,12.85
2022-10-13T04:01:32.625Z,13.68
2022-10-13T04:04:04.388Z,14.32
2022-10-13T04:06:34.845Z,12.85
2022-10-13T04:09:03.780Z,13.82
2022-10-13T04:11:32.581Z,13.63
2022-10-13T04:14:01.037Z,14.50
2022-10-13T04:16:31.848Z,15.23
2022-10-13T04:19:04.022Z,16.65
2022-10-13T04:21:34.707Z,16.13
2022-10-13T04:24:04.083Z,14.68
2022-10-13T04:26:35.557Z,14.07
2022-10-13T04:29:09.446Z,15.50
2022-10-13T04:31:39.229Z,15.27
2022-10-13T04:34:07.849Z,15.73
2022-10-13T04:36:36.936Z,15.98
2022-10-13T04:39:05.359Z,16.23
2022-10-13T04:41:35.118Z,16.67
2022-10-13T04:44:03.490Z,17.23
2022-10-13T04:46:32.063Z,17.60
2022-10-13T04:49:01.631Z,17.20
2022-10-13T04:51:34.043Z,16.80
2022-10-13T04:54:02.828Z,18.40
2022-10-13T04:56:33.067Z,16.20
2022-10-13T04:59:05.976Z,16.40
2022-10-13T05:01:36.023Z,16.88
2022-10-13T05:04:10.117Z,18.00
2022-10-13T05:07:05.243Z,18.33
2022-10-13T05:09:29.566Z,18.65
2022-10-13T05:11:57.995Z,19.00
2022-10-13T05:14:26.950Z,17.35
2022-10-13T05:16:55.167Z,19.55
2022-10-13T05:19:23.735Z,18.48
2022-10-13T05:21:53.768Z,19.83
2022-10-13T05:24:31.020Z,19.48
2022-10-13T05:26:59.599Z,19.98
2022-10-13T05:29:28.027Z,20.13
2022-10-13T05:31:56.480Z,19.85
2022-10-13T05:34:24.870Z,18.60
2022-10-13T05:36:53.425Z,19.38
2022-10-13T05:39:22.288Z,21.48
2022-10-13T05:41:50.859Z,21.52
2022-10-13T05:44:22.405Z,22.17
2022-10-13T05:46:57.142Z,20.67
2022-10-13T05:49:25.689Z,21.98
2022-10-13T05:52:00.445Z,18.77
2022-10-13T05:55:05.629Z,20.70
2022-10-13T05:57:38.306Z,21.23
2022-10-13T06:00:28.274Z,21.38
2022-10-13T06:03:05.789Z,22.10
2022-10-13T06:05:37.610Z,21.92
2022-10-13T06:08:06.083Z,21.65
2022-10-13T06:10:37.392Z,21.83
2022-10-13T06:13:05.754Z,20.65
2022-10-13T06:15:34.165Z,22.08
2022-10-13T06:18:02.587Z,21.77
2022-10-13T06:20:31.003Z,22.20
2022-10-13T06:22:59.735Z,23.27
2022-10-13T06:25:30.421Z,22.38
2022-10-13T06:30:29.126Z,22.25
2022-10-13T06:32:57.763Z,21.75
2022-10-13T06:35:26.031Z,23.13
2022-10-13T06:37:57.411Z,23.23
2022-10-13T06:42:54.678Z,23.70
2022-10-13T06:45:24.535Z,24.70
2022-10-13T06:47:54.561Z,25.38
2022-10-13T06:50:23.513Z,24.48
2022-10-13T06:52:56.839Z,24.70
2022-10-13T06:55:26.684Z,26.02
2022-10-13T06:57:54.948Z,28.37
2022-10-13T07:00:24.739Z,26.48
2022-10-13T07:02:53.140Z,26.88
2022-10-13T07:05:21.390Z,26.48
2022-10-13T07:07:54.032Z,27.75
2022-10-13T07:10:22.403Z,27.92
2022-10-13T07:12:50.911Z,29.30
2022-10-13T07:15:19.235Z,26.92
2022-10-13T07:17:53.979Z,29.20
2022-10-13T07:20:24.099Z,28.15
2022-10-13T07:22:54.774Z,29.25
2022-10-13T07:25:25.056Z,28.58
2022-10-13T07:27:53.468Z,27.50
2022-10-13T07:30:21.926Z,28.40
2022-10-13T07:32:50.372Z,28.65
2022-10-13T07:35:19.977Z,26.10
2022-10-13T07:37:48.677Z,26.58
2022-10-13T07:40:20.270Z,26.52
2022-10-13T07:42:48.727Z,26.85
2022-10-13T07:45:17.146Z,26.95
2022-10-13T07:47:45.460Z,25.77
2022-10-13T07:50:13.763Z,26.42
2022-10-13T07:52:42.078Z,26.65
2022-10-13T07:55:13.405Z,24.98
2022-10-13T07:57:41.724Z,24.75
2022-10-13T08:00:11.590Z,26.50
2022-10-13T08:02:42.836Z,22.70
2022-10-13T08:05:11.231Z,25.30
2022-10-13T08:07:39.589Z,23.35
2022-10-13T08:10:08.776Z,23.50
2022-10-13T08:12:37.735Z,23.45
2022-10-13T08:15:08.602Z,23.77
2022-10-13T08:17:37.081Z,23.85
2022-10-13T08:20:06.706Z,22.63
2022-10-13T08:22:35.020Z,23.48
2022-10-13T08:25:03.523Z,23.80
2022-10-13T08:27:49.587Z,23.25
2022-10-13T08:30:19.814Z,24.10
2022-10-13T08:32:49.490Z,21.98
2022-10-13T08:35:19.324Z,24.73
2022-10-13T08:37:47.641Z,24.23
2022-10-13T08:40:20.831Z,23.05
2022-10-13T08:42:50.548Z,22.85
2022-10-13T08:45:40.991Z,22.65
2022-10-13T08:48:32.979Z,22.60
2022-10-13T08:51:06.157Z,21.33
2022-10-13T08:53:41.491Z,21.40
2022-10-13T08:56:14.011Z,23.05
2022-10-13T08:58:44.211Z,20.50
2022-10-13T09:01:20.102Z,21.38
2022-10-13T09:04:11.449Z,22.67
2022-10-13T09:06:48.352Z,23.73
2022-10-13T09:09:17.435Z,23.38
2022-10-13T09:11:49.438Z,22.30
2022-10-13T09:14:38.180Z,22.55
2022-10-13T09:17:20.397Z,21.88
2022-10-13T09:20:08.057Z,22.80
2022-10-13T09:22:38.710Z,23.65
2022-10-13T09:25:07.050Z,23.55
2022-10-13T09:28:08.811Z,23.85
2022-10-13T09:30:47.158Z,23.52
2022-10-13T09:33:20.883Z,23.63
2022-10-13T09:36:06.805Z,22.83
2022-10-13T09:38:35.120Z,22.95
2022-10-13T09:41:20.214Z,23.17
2022-10-13T09:43:48.637Z,25.30
2022-10-13T09:46:46.550Z,26.95
2022-10-13T09:49:32.623Z,25.13
2022-10-13T09:52:17.043Z,25.05
2022-10-13T09:54:50.158Z,23.25
2022-10-13T09:57:31.484Z,27.73
2022-10-13T10:00:26.184Z,24.70
2022-10-13T10:03:16.678Z,25.48
2022-10-13T10:05:55.862Z,26.88
2022-10-13T10:08:33.906Z,27.88
2022-10-13T10:11:27.569Z,27.85
2022-10-13T10:13:57.659Z,28.70
2022-10-13T10:16:41.378Z,29.65
2022-10-13T10:19:37.508Z,28.90
2022-10-13T10:22:14.129Z,28.35
2022-10-13T10:25:18.275Z,28.40
2022-10-13T10:28:08.003Z,28.85
2022-10-13T10:30:44.214Z,30.27
2022-10-13T10:33:20.230Z,29.83
2022-10-13T10:36:16.811Z,29.08
2022-10-13T10:38:49.114Z,29.63
2022-10-13T10:41:37.401Z,27.80
2022-10-13T10:44:24.965Z,31.40
2022-10-13T10:46:59.452Z,28.92
2022-10-13T10:49:36.348Z,29.08
2022-10-13T10:52:17.006Z,28.60
2022-10-13T10:55:15.198Z,28.70
2022-10-13T10:58:12.697Z,28.33
2022-10-13T11:01:31.195Z,26.77
2022-10-13T11:04:33.622Z,27.42
2022-10-13T11:07:03.589Z,26.30
2022-10-13T11:09:41.315Z,26.30
2022-10-13T11:12:19.089Z,27.40
2022-10-13T11:15:02.226Z,23.73
2022-10-13T11:17:34.747Z,24.70
2022-10-13T11:20:25.469Z,25.85
2022-10-13T11:22:59.799Z,25.33
2022-10-13T11:25:41.668Z,25.83
2022-10-13T11:28:22.388Z,26.05
2022-10-13T11:33:38.523Z,24.85
2022-10-13T11:36:37.597Z,24.52
2022-10-13T11:39:33.432Z,25.33
2022-10-13T11:42:32.968Z,24.35
2022-10-13T11:45:21.640Z,24.27
2022-10-13T11:47:58.959Z,22.98
2022-10-13T11:51:01.084Z,25.02
2022-10-13T11:53:41.837Z,21.73
2022-10-13T11:56:22.402Z,23.58
2022-10-13T12:01:19.752Z,22.77
2022-10-13T12:03:48.459Z,21.80
2022-10-13T12:06:32.559Z,22.85
2022-10-13T12:09:14.633Z,21.52
2022-10-13T12:11:44.290Z,23.05
2022-10-13T12:14:24.205Z,22.15
2022-10-13T12:16:57.854Z,22.50
2022-10-13T12:19:29.287Z,23.88
2022-10-13T12:22:03.844Z,25.17
2022-10-13T12:24:32.158Z,22.55
2022-10-13T12:27:21.474Z,22.20
2022-10-13T12:29:51.840Z,23.35
2022-10-13T12:32:31.967Z,22.02
2022-10-13T12:35:26.719Z,24.42
2022-10-13T12:37:57.094Z,22.40
2022-10-13T12:40:25.576Z,23.88
2022-10-13T12:42:54.104Z,22.80
2022-10-13T12:45:26.102Z,22.83
2022-10-13T12:47:55.089Z,22.40
2022-10-13T12:50:29.554Z,23.15
2022-10-13T12:53:20.630Z,22.52
2022-10-13T12:56:00.731Z,22.38
2022-10-13T12:58:31.315Z,22.58
2022-10-13T13:01:07.879Z,21.85
2022-10-13T13:03:38.794Z,22.48
2022-10-13T13:06:08.854Z,24.58
2022-10-13T13:08:37.304Z,22.13
2022-10-13T13:11:07.831Z,21.27
2022-10-13T13:13:36.199Z,22.75
2022-10-13T13:16:23.102Z,22.33
2022-10-13T13:18:52.005Z,21.90
2022-10-13T13:21:20.813Z,23.92
2022-10-13T13:23:52.905Z,21.70
2022-10-13T13:26:23.745Z,23.35
2022-10-13T13:28:54.813Z,22.52
2022-10-13T13:31:25.348Z,22.15
2022-10-13T13:33:53.774Z,20.98
2022-10-13T13:36:25.010Z,22.27
2022-10-13T13:38:54.324Z,23.33
2022-10-13T13:41:25.063Z,24.27
2022-10-13T13:46:24.759Z,23.08
2022-10-13T13:48:53.504Z,23.65
2022-10-13T13:51:22.004Z,22.23
2022-10-13T13:53:50.510Z,24.50
2022-10-13T13:56:20.949Z,23.17
2022-10-13T13:58:49.349Z,23.58
2022-10-13T14:01:17.754Z,25.00
2022-10-13T14:03:46.062Z,21.13
2022-10-13T14:08:47.105Z,23.80
2022-10-13T14:11:15.427Z,24.27
2022-10-13T14:13:43.728Z,23.35
2022-10-13T14:16:18.382Z,23.52
2022-10-13T14:18:47.677Z,22.60
2022-10-13T14:21:16.005Z,23.63
2022-10-13T14:23:47.131Z,24.27
2022-10-13T14:26:16.061Z,22.48
2022-10-13T14:28:45.145Z,23.08
2022-10-13T14:31:13.694Z,23.75
2022-10-13T14:33:43.811Z,22.95
2022-10-13T14:36:12.221Z,22.88
2022-10-13T14:38:40.594Z,21.77
2022-10-13T14:41:09.720Z,21.73
2022-10-13T14:43:38.841Z,23.17
2022-10-13T14:46:07.762Z,22.77
2022-10-13T14:48:37.577Z,22.65
2022-10-13T14:51:07.238Z,23.70
2022-10-13T14:53:40.920Z,23.98
2022-10-13T14:56:21.574Z,24.77
2022-10-13T14:59:02.710Z,23.33
2022-10-13T15:01:38.632Z,24.15
2022-10-13T15:04:07.932Z,23.42
2022-10-13T15:06:39.346Z,22.05
2022-10-13T15:11:42.285Z,22.70
2022-10-13T15:14:10.738Z,23.83
2022-10-13T15:16:39.165Z,22.30
2022-10-13T15:19:08.354Z,22.27
2022-10-13T15:21:36.788Z,24.13
2022-10-13T15:24:06.277Z,23.63
2022-10-13T15:26:34.970Z,24.30
2022-10-13T15:29:03.918Z,23.98
2022-10-13T15:31:32.349Z,23.67
2022-10-13T15:34:01.705Z,24.42
2022-10-13T15:36:30.029Z,24.58
2022-10-13T15:38:58.638Z,24.88
2022-10-13T15:41:26.995Z,25.13
2022-10-13T15:43:55.361Z,25.75
2022-10-13T15:46:24.429Z,27.02
2022-10-13T15:48:55.146Z,25.33
2022-10-13T15:51:24.355Z,25.55
2022-10-13T15:53:55.704Z,27.67
2022-10-13T15:56:24.040Z,25.02
2022-10-13T15:58:52.793Z,25.42
2022-10-13T16:01:21.170Z,24.23
2022-10-13T16:03:53.762Z,24.40
2022-10-13T16:06:22.582Z,25.67
2022-10-13T16:08:50.971Z,26.77
2022-10-13T16:11:21.718Z,24.85
2022-10-13T16:16:22.334Z,24.73
2022-10-13T16:18:51.362Z,24.83
2022-10-13T16:21:28.913Z,23.13
2022-10-13T16:24:00.419Z,26.48
2022-10-13T16:26:28.795Z,26.25
2022-10-13T16:29:00.417Z,22.33
2022-10-13T16:31:29.317Z,20.88
2022-10-13T16:33:57.597Z,10.98
2022-10-13T16:36:26.078Z,7.75
2022-10-13T16:38:56.538Z,4.85
2022-10-13T16:41:25.067Z,4.43
2022-10-13T16:43:55.148Z,4.25
2022-10-13T16:46:23.902Z,3.70
2022-10-13T16:48:52.176Z,3.40
2022-10-13T16:51:23.253Z,3.17
2022-10-13T16:53:59.962Z,3.72
2022-10-13T16:56:33.050Z,3.40
2022-10-13T16:59:04.619Z,6.38
2022-10-13T17:01:34.845Z,7.55
2022-10-13T17:04:04.453Z,7.63
2022-10-13T17:06:33.160Z,7.35
2022-10-13T17:09:03.905Z,6.90
2022-10-13T17:11:34.386Z,5.90
2022-10-13T17:14:05.682Z,6.38
2022-10-13T17:16:34.216Z,4.95
2022-10-13T17:19:03.517Z,5.75
2022-10-13T17:21:34.484Z,5.93
2022-10-13T17:24:02.903Z,5.72
2022-10-13T17:26:31.545Z,6.43
2022-10-13T17:28:59.900Z,4.93
2022-10-13T17:31:28.359Z,4.93
2022-10-13T17:33:56.846Z,4.13
2022-10-13T17:36:31.842Z,3.63
2022-10-13T17:39:07.903Z,3.58
2022-10-13T17:41:40.460Z,3.95
2022-10-13T17:44:10.009Z,4.50
2022-10-13T17:46:39.486Z,3.92
2022-10-13T17:49:10.964Z,3.33
2022-10-13T17:51:40.837Z,3.17
2022-10-13T17:54:15.568Z,3.92
2022-10-13T17:56:46.692Z,3.17
2022-10-13T17:59:16.460Z,3.40
2022-10-13T18:01:45.954Z,3.33
2022-10-13T18:04:17.157Z,3.33
2022-10-13T18:06:45.884Z,3.55
2022-10-13T18:09:23.250Z,3.65
2022-10-13T18:11:53.961Z,3.80
2022-10-13T18:16:52.629Z,3.70
2022-10-13T18:19:21.930Z,3.65
2022-10-13T18:21:55.704Z,3.50
2022-10-13T18:24:25.126Z,3.55
2022-10-13T18:26:56.138Z,4.35
2022-10-13T18:29:25.693Z,4.93
2022-10-13T18:31:56.578Z,7.82
2022-10-13T18:36:56.663Z,6.82
2022-10-13T18:39:30.127Z,6.53
2022-10-13T18:42:01.978Z,5.38
2022-10-13T18:44:35.386Z,5.88
2022-10-13T18:47:03.920Z,4.95
2022-10-13T18:49:33.274Z,6.13
2022-10-13T18:52:04.464Z,4.97
2022-10-13T18:54:34.749Z,5.88
2022-10-13T18:57:03.175Z,4.93
2022-10-13T18:59:31.566Z,4.63
2022-10-13T19:02:01.404Z,4.47
2022-10-13T19:04:29.696Z,5.28
2022-10-13T19:06:58.016Z,4.72
2022-10-13T19:09:30.402Z,5.90
2022-10-13T19:11:58.977Z,5.13
2022-10-13T19:14:28.006Z,5.05
2022-10-13T19:17:01.606Z,5.57
2022-10-13T19:19:31.276Z,5.40
2022-10-13T19:22:02.402Z,5.85
2022-10-13T19:24:30.734Z,6.38
2022-10-13T19:26:59.025Z,5.97
2022-10-13T19:29:30.573Z,5.88
2022-10-13T19:31:58.975Z,6.07
2022-10-13T19:34:27.488Z,6.22
2022-10-13T19:37:00.436Z,7.40
2022-10-13T19:39:29.348Z,7.15
2022-10-13T19:41:57.980Z,8.23
2022-10-13T19:44:26.613Z,9.13
2022-10-13T19:46:55.494Z,9.25
2022-10-13T19:49:26.507Z,9.45
2022-10-13T19:51:57.320Z,9.70
2022-10-13T19:57:01.475Z,13.13
2022-10-13T19:59:29.743Z,13.48
2022-10-13T20:01:58.057Z,15.18
2022-10-13T20:04:26.716Z,15.32
2022-10-13T20:06:55.127Z,18.25
2022-10-13T20:09:23.462Z,18.15
2022-10-13T20:11:57.175Z,20.33
2022-10-13T20:14:25.709Z,18.42
2022-10-13T20:16:58.485Z,20.80
2022-10-13T20:19:27.047Z,22.58
2022-10-13T20:21:56.378Z,22.70
2022-10-13T20:24:27.914Z,23.90
2022-10-13T20:26:57.832Z,23.17
2022-10-13T20:29:27.360Z,21.52
2022-10-13T20:31:55.727Z,23.02
2022-10-13T20:34:25.101Z,23.25
2022-10-13T20:36:53.640Z,21.00
2022-10-13T20:39:24.717Z,20.65
2022-10-13T20:41:53.674Z,19.52
2022-10-13T20:44:22.024Z,20.27
2022-10-13T20:46:51.939Z,20.05
2022-10-13T20:49:23.542Z,20.63
2022-10-13T20:51:51.873Z,21.42
2022-10-13T20:54:20.273Z,21.33
2022-10-13T20:56:49.629Z,21.02
2022-10-13T20:59:17.920Z,21.92
2022-10-13T21:01:46.312Z,21.65
2022-10-13T21:04:14.617Z,22.58
2022-10-13T21:06:43.510Z,23.23
2022-10-13T21:09:12.216Z,23.10
2022-10-13T21:11:43.367Z,19.70
2022-10-13T21:14:11.770Z,20.08
2022-10-13T21:16:43.342Z,21.60
2022-10-13T21:19:12.833Z,20.90
2022-10-13T21:21:41.117Z,22.65
2022-10-13T21:24:10.331Z,21.00
2022-10-13T21:26:43.125Z,21.55
2022-10-13T21:29:15.210Z,22.30
2022-10-13T21:31:43.544Z,23.30
2022-10-13T21:34:12.520Z,23.13
2022-10-13T21:36:44.351Z,21.33
2022-10-13T21:39:14.687Z,21.20
2022-10-13T21:41:43.442Z,21.00
2022-10-13T21:44:14.973Z,20.10
2022-10-13T21:46:43.464Z,22.17
2022-10-13T21:49:12.066Z,22.05
2022-10-13T21:51:40.624Z,21.88
2022-10-13T21:54:12.631Z,22.90
2022-10-13T21:56:41.924Z,21.63
2022-10-13T21:59:12.414Z,20.52
2022-10-13T22:01:41.272Z,21.77
2022-10-13T22:04:15.793Z,21.42
2022-10-13T22:06:44.474Z,19.98
2022-10-13T22:09:13.360Z,22.63
2022-10-13T22:11:42.321Z,19.00
2022-10-13T22:14:13.637Z,19.15
2022-10-13T22:16:45.713Z,20.45
2022-10-13T22:19:14.923Z,19.80
2022-10-13T22:21:46.612Z,21.05
2022-10-13T22:24:17.497Z,22.50
2022-10-13T22:26:48.714Z,22.63
2022-10-13T22:29:20.370Z,23.25
2022-10-13T22:31:50.555Z,20.67
2022-10-13T22:34:18.886Z,21.27
2022-10-13T22:36:47.524Z,23.02
2022-10-13T22:39:16.246Z,22.80
2022-10-13T22:41:44.609Z,22.13
2022-10-13T22:44:13.628Z,23.67
2022-10-13T22:46:44.743Z,21.40
2022-10-13T22:49:14.969Z,25.00
2022-10-13T22:51:43.720Z,23.80
2022-10-13T22:54:12.524Z,22.80
2022-10-13T22:56:42.091Z,23.63
2022-10-13T22:59:12.098Z,24.17
2022-10-13T23:01:40.698Z,23.45
2022-10-13T23:04:09.236Z,24.10
2022-10-13T23:06:37.716Z,27.63
2022-10-13T23:09:12.148Z,25.95
2022-10-13T23:11:40.797Z,26.38
2022-10-13T23:14:12.552Z,28.42
2022-10-13T23:16:40.906Z,30.48
2022-10-13T23:19:09.225Z,27.25
2022-10-13T23:21:38.185Z,25.00
2022-10-13T23:24:07.374Z,27.27
2022-10-13T23:26:35.794Z,30.90
2022-10-13T23:29:05.166Z,29.75
2022-10-13T23:31:33.949Z,26.77
2022-10-13T23:34:02.338Z,28.00
2022-10-13T23:36:32.242Z,30.83
2022-10-13T23:39:06.465Z,32.72
2022-10-13T23:41:35.350Z,34.55
2022-10-13T23:44:03.969Z,35.38
2022-10-13T23:46:32.229Z,35.25
2022-10-13T23:49:00.591Z,32.00
2022-10-13T23:51:29.044Z,30.23
2022-10-13T23:53:58.666Z,36.28
2022-10-13T23:56:27.074Z,37.53
2022-10-13T23:58:55.457Z,35.70
